createdAt,value
2023-01-13T00:01:58.940Z,17.25
2023-01-13T00:04:26.703Z,14.23
2023-01-13T00:06:53.956Z,17.20
2023-01-13T00:09:22.807Z,19.42
2023-01-13T00:11:49.901Z,15.20
2023-01-13T00:14:19.476Z,18.13
2023-01-13T00:16:46.337Z,16.52
2023-01-13T00:19:19.947Z,15.48
2023-01-13T00:21:52.213Z,18.98
2023-01-13T00:24:21.853Z,15.70
2023-01-13T00:26:50.094Z,15.50
2023-01-13T00:29:20.204Z,15.82
2023-01-13T00:31:51.768Z,15.88
2023-01-13T00:34:22.009Z,17.35
2023-01-13T00:36:54.661Z,17.25
2023-01-13T00:39:22.805Z,13.68
2023-01-13T00:42:08.103Z,16.02
2023-01-13T00:44:34.966Z,15.30
2023-01-13T00:47:05.815Z,15.23
2023-01-13T00:49:33.856Z,19.50
2023-01-13T00:52:16.157Z,18.90
2023-01-13T00:57:11.004Z,14.07
2023-01-13T00:59:44.501Z,13.23
2023-01-13T01:02:14.567Z,15.73
2023-01-13T01:04:41.542Z,19.98
2023-01-13T01:07:08.902Z,17.88
2023-01-13T01:09:39.569Z,13.00
2023-01-13T01:12:07.530Z,18.77
2023-01-13T01:14:39.150Z,14.20
2023-01-13T01:17:06.587Z,12.57
2023-01-13T01:19:33.466Z,10.98
2023-01-13T01:22:02.745Z,12.52
2023-01-13T01:24:32.086Z,7.75
2023-01-13T01:26:59.830Z,10.38
2023-01-13T01:29:29.949Z,12.10
2023-01-13T01:31:59.297Z,14.63
2023-01-13T01:34:28.784Z,15.90
2023-01-13T01:36:55.708Z,19.70
2023-01-13T01:39:22.504Z,13.38
2023-01-13T01:42:08.076Z,13.75
2023-01-13T01:44:43.863Z,16.95
2023-01-13T01:47:14.255Z,18.23
2023-01-13T01:49:48.379Z,14.02
2023-01-13T01:52:30.046Z,16.77
2023-01-13T01:55:06.959Z,21.67
2023-01-13T01:57:40.134Z,12.40
2023-01-13T02:00:10.772Z,9.82
2023-01-13T02:02:41.056Z,12.88
2023-01-13T02:05:10.939Z,16.50
2023-01-13T02:07:45.129Z,15.50
2023-01-13T02:10:20.266Z,13.65
2023-01-13T02:12:48.675Z,10.30
2023-01-13T02:15:35.676Z,15.35
2023-01-13T02:18:02.885Z,13.70
2023-01-13T02:20:54.390Z,11.43
2023-01-13T02:24:26.650Z,9.98
2023-01-13T02:27:14.439Z,11.88
2023-01-13T02:30:29.970Z,12.35
2023-01-13T02:33:12.997Z,17.42
2023-01-13T02:35:54.194Z,21.30
2023-01-13T02:38:29.031Z,14.95
2023-01-13T02:41:27.784Z,14.40
2023-01-13T02:44:07.822Z,17.45
2023-01-13T02:46:43.422Z,16.80
2023-01-13T02:49:26.904Z,16.20
2023-01-13T02:51:56.834Z,14.40
2023-01-13T02:54:29.385Z,17.48
2023-01-13T02:56:58.919Z,16.50
2023-01-13T02:59:27.987Z,16.30
2023-01-13T03:01:58.100Z,17.95
2023-01-13T03:04:57.273Z,15.45
2023-01-13T03:07:42.955Z,16.77
2023-01-13T03:10:15.894Z,17.63
2023-01-13T03:13:41.953Z,12.52
2023-01-13T03:16:10.395Z,12.00
2023-01-13T03:19:16.138Z,10.23
2023-01-13T03:22:25.573Z,14.32
2023-01-13T03:25:01.190Z,14.90
2023-01-13T03:27:52.075Z,14.30
2023-01-13T03:30:53.632Z,22.27
2023-01-13T03:33:27.333Z,9.65
2023-01-13T03:36:00.941Z,9.88
2023-01-13T03:38:42.455Z,11.82
2023-01-13T03:41:28.018Z,11.10
2023-01-13T03:44:25.737Z,12.93
2023-01-13T03:47:30.808Z,8.80
2023-01-13T03:50:42.461Z,7.88
2023-01-13T03:53:20.575Z,9.68
2023-01-13T03:56:05.923Z,8.95
2023-01-13T03:58:49.502Z,21.05
2023-01-13T04:01:27.060Z,14.15
2023-01-13T04:04:24.520Z,12.13
2023-01-13T04:07:26.640Z,11.48
2023-01-13T04:09:56.798Z,10.73
2023-01-13T04:12:27.409Z,11.63
2023-01-13T04:14:56.864Z,11.23
2023-01-13T04:17:30.552Z,13.07
2023-01-13T04:19:59.758Z,12.02
2023-01-13T04:22:30.686Z,11.25
2023-01-13T04:25:08.073Z,13.52
2023-01-13T04:27:43.693Z,10.50
2023-01-13T04:30:11.413Z,12.50
2023-01-13T04:32:38.194Z,11.25
2023-01-13T04:35:18.009Z,11.15
2023-01-13T04:37:51.100Z,11.98
2023-01-13T04:40:20.731Z,10.73
2023-01-13T04:42:52.736Z,12.02
2023-01-13T04:45:31.232Z,11.17
2023-01-13T04:47:58.785Z,15.43
2023-01-13T04:50:30.910Z,12.15
2023-01-13T04:53:06.641Z,12.77
2023-01-13T04:55:36.247Z,7.97
2023-01-13T04:58:07.964Z,13.52
2023-01-13T05:00:40.219Z,13.67
2023-01-13T05:03:07.400Z,12.07
2023-01-13T05:05:43.402Z,13.27
2023-01-13T05:08:11.593Z,14.68
2023-01-13T05:10:43.762Z,12.30
2023-01-13T05:13:31.498Z,11.52
2023-01-13T05:16:35.813Z,13.32
2023-01-13T05:19:06.789Z,16.45
2023-01-13T05:21:58.302Z,18.75
2023-01-13T05:24:44.190Z,15.80
2023-01-13T05:27:15.112Z,14.25
2023-01-13T05:50:33.669Z,14.50
2023-01-13T05:56:28.798Z,15.70
2023-01-13T06:22:49.515Z,20.58
2023-01-13T06:36:01.426Z,20.70
2023-01-13T06:38:31.520Z,23.98
2023-01-13T06:41:00.748Z,21.77
2023-01-13T06:50:42.544Z,32.45
2023-01-13T06:53:10.014Z,30.30
2023-01-13T06:55:37.131Z,27.65
2023-01-13T06:58:16.071Z,27.30
2023-01-13T07:08:28.885Z,31.13
2023-01-13T07:18:42.769Z,29.77
2023-01-13T07:21:13.290Z,30.52
2023-01-13T07:29:56.840Z,34.28
2023-01-13T07:32:33.958Z,28.42
2023-01-13T07:35:11.626Z,31.50
2023-01-13T07:37:39.831Z,35.40
2023-01-13T07:43:36.739Z,34.33
2023-01-13T07:46:13.458Z,28.15
2023-01-13T07:48:40.928Z,29.00
2023-01-13T07:51:11.825Z,31.33
2023-01-13T07:53:39.078Z,33.53
2023-01-13T07:56:10.733Z,31.85
2023-01-13T07:58:37.994Z,37.50
2023-01-13T08:01:20.291Z,23.05
2023-01-13T08:07:42.509Z,23.67
2023-01-13T08:10:17.602Z,30.70
2023-01-13T08:13:03.828Z,32.53
2023-01-13T08:19:38.430Z,32.03
2023-01-13T08:22:09.362Z,29.38
2023-01-13T08:24:36.164Z,31.50
2023-01-13T08:27:02.835Z,32.30
2023-01-13T08:33:26.559Z,32.75
2023-01-13T08:36:05.088Z,31.65
2023-01-13T08:38:32.515Z,35.55
2023-01-13T08:51:59.038Z,29.50
2023-01-13T09:12:51.531Z,31.95
2023-01-13T09:22:27.661Z,29.27
2023-01-13T09:24:57.597Z,38.53
2023-01-13T09:27:25.076Z,33.83
2023-01-13T09:29:51.814Z,40.75
2023-01-13T09:36:30.285Z,24.85
2023-01-13T09:38:59.758Z,27.13
2023-01-13T09:42:03.327Z,27.67
2023-01-13T09:44:41.525Z,25.52
2023-01-13T09:47:20.419Z,30.20
2023-01-13T10:00:39.618Z,31.95
2023-01-13T10:03:15.537Z,36.72
2023-01-13T10:06:01.155Z,28.50
2023-01-13T10:08:41.967Z,29.17
2023-01-13T10:14:42.148Z,21.38
2023-01-13T10:17:18.833Z,30.05
2023-01-13T10:33:28.688Z,35.67
2023-01-13T10:36:02.808Z,38.38
2023-01-13T10:38:29.891Z,31.27
2023-01-13T10:41:04.867Z,42.88
2023-01-13T10:43:32.171Z,31.60
2023-01-13T10:46:24.386Z,34.75
2023-01-13T10:52:58.469Z,33.30
2023-01-13T11:26:27.604Z,23.85
2023-01-13T11:29:21.044Z,33.70
2023-01-13T11:35:20.665Z,33.90
2023-01-13T11:38:02.964Z,25.63
2023-01-13T11:44:17.169Z,27.17
2023-01-13T12:04:25.841Z,22.92
2023-01-13T12:07:14.336Z,33.17
2023-01-13T12:10:18.209Z,26.48
2023-01-13T12:12:47.619Z,21.67
2023-01-13T12:15:46.909Z,21.98
2023-01-13T12:18:39.692Z,18.25
2023-01-13T12:21:15.165Z,29.80
2023-01-13T12:24:06.184Z,21.70
2023-01-13T12:26:45.866Z,25.23
2023-01-13T12:29:24.668Z,21.67
2023-01-13T12:31:55.635Z,19.58
2023-01-13T12:34:50.685Z,23.27
2023-01-13T12:37:44.983Z,23.55
2023-01-13T12:40:25.701Z,33.03
2023-01-13T12:43:39.978Z,32.78
2023-01-13T12:46:28.916Z,19.90
2023-01-13T12:49:07.812Z,24.67
2023-01-13T12:51:55.649Z,34.45
2023-01-13T12:54:58.060Z,32.33
2023-01-13T12:57:36.833Z,36.80
2023-01-13T13:00:03.580Z,34.55
2023-01-13T13:02:35.745Z,23.15
2023-01-13T13:05:28.920Z,27.98
2023-01-13T13:08:31.477Z,35.72
2023-01-13T13:11:46.007Z,40.75
2023-01-13T13:14:14.461Z,22.80
2023-01-13T13:16:52.845Z,35.40
2023-01-13T13:19:21.318Z,31.50
2023-01-13T13:22:08.774Z,33.55
2023-01-13T13:24:35.798Z,37.15
2023-01-13T13:27:20.069Z,31.20
2023-01-13T13:29:59.919Z,36.58
2023-01-13T13:32:41.786Z,32.05
2023-01-13T13:35:17.701Z,31.08
2023-01-13T13:38:37.449Z,36.13
2023-01-13T13:41:46.792Z,34.65
2023-01-13T13:44:36.665Z,36.58
2023-01-13T13:47:06.996Z,35.10
2023-01-13T13:49:51.720Z,35.08
2023-01-13T13:52:39.375Z,40.72
2023-01-13T13:55:18.831Z,35.33
2023-01-13T13:57:58.733Z,31.38
2023-01-13T14:00:42.410Z,33.63
2023-01-13T14:03:25.545Z,36.17
2023-01-13T14:06:03.247Z,36.78
2023-01-13T14:08:36.053Z,32.78
2023-01-13T14:11:32.575Z,34.45
2023-01-13T14:14:17.010Z,36.13
2023-01-13T14:16:51.374Z,35.63
2023-01-13T14:19:35.265Z,39.45
2023-01-13T14:22:23.513Z,40.47
2023-01-13T14:24:55.761Z,30.75
2023-01-13T14:27:35.415Z,33.03
2023-01-13T14:30:10.006Z,38.72
2023-01-13T14:32:47.998Z,36.47
2023-01-13T14:35:17.864Z,26.35
2023-01-13T14:37:52.852Z,40.33
2023-01-13T14:40:49.756Z,28.35
2023-01-13T14:43:28.755Z,46.45
2023-01-13T14:46:04.016Z,40.05
2023-01-13T14:48:36.141Z,41.40
2023-01-13T14:51:17.339Z,40.65
2023-01-13T14:53:47.272Z,27.70
2023-01-13T14:56:48.151Z,42.60
2023-01-13T15:00:02.914Z,44.22
2023-01-13T15:02:36.531Z,38.50
2023-01-13T15:05:31.023Z,28.30
2023-01-13T15:08:16.639Z,30.13
2023-01-13T15:11:00.044Z,42.35
2023-01-13T15:13:53.188Z,31.92
2023-01-13T15:16:33.958Z,25.73
2023-01-13T15:19:03.612Z,28.50
2023-01-13T15:21:30.356Z,33.05
2023-01-13T15:23:59.880Z,38.28
2023-01-13T15:26:36.364Z,27.92
2023-01-13T15:29:03.887Z,39.05
2023-01-13T15:31:32.441Z,32.17
2023-01-13T15:34:00.578Z,36.67
2023-01-13T15:36:35.657Z,42.72
2023-01-13T15:39:08.647Z,39.88
2023-01-13T15:41:54.722Z,41.03
2023-01-13T15:44:41.453Z,42.08
2023-01-13T15:47:14.768Z,36.00
2023-01-13T15:49:53.467Z,28.20
2023-01-13T15:52:25.018Z,37.38
2023-01-13T15:55:04.102Z,40.53
2023-01-13T15:57:41.092Z,44.97
2023-01-13T16:00:22.970Z,40.63
2023-01-13T16:02:56.274Z,34.53
2023-01-13T16:05:37.918Z,32.75
2023-01-13T16:08:05.008Z,41.92
2023-01-13T16:10:35.412Z,43.80
2023-01-13T16:13:13.055Z,41.25
2023-01-13T16:15:47.664Z,47.35
2023-01-13T16:18:34.684Z,54.35
2023-01-13T16:21:03.484Z,44.78
2023-01-13T16:23:39.965Z,42.97
2023-01-13T16:26:24.409Z,47.05
2023-01-13T16:28:59.203Z,28.67
2023-01-13T16:31:39.672Z,37.83
2023-01-13T16:34:15.368Z,41.75
2023-01-13T16:36:50.957Z,42.80
2023-01-13T16:39:23.996Z,41.33
2023-01-13T16:41:50.904Z,49.97
2023-01-13T16:44:29.026Z,42.97
2023-01-13T16:47:07.787Z,42.58
2023-01-13T16:49:34.763Z,46.42
2023-01-13T16:52:01.555Z,45.08
2023-01-13T16:54:29.029Z,44.60
2023-01-13T16:57:05.510Z,45.33
2023-01-13T16:59:32.245Z,44.00
2023-01-13T17:01:59.463Z,41.55
2023-01-13T17:04:29.910Z,49.88
2023-01-13T17:07:06.242Z,51.50
2023-01-13T17:09:39.373Z,46.42
2023-01-13T17:12:06.484Z,45.60
2023-01-13T17:14:33.356Z,47.40
2023-01-13T17:17:00.537Z,52.25
2023-01-13T17:19:39.297Z,53.05
2023-01-13T17:22:06.127Z,47.10
2023-01-13T17:24:35.411Z,50.42
2023-01-13T17:27:13.920Z,50.58
2023-01-13T17:29:41.430Z,57.28
2023-01-13T17:32:17.644Z,56.35
2023-01-13T17:34:45.226Z,57.20
2023-01-13T17:37:18.129Z,47.35
2023-01-13T17:39:51.383Z,53.25
2023-01-13T17:42:18.662Z,48.60
2023-01-13T17:44:47.012Z,55.03
2023-01-13T17:47:21.581Z,49.95
2023-01-13T17:49:50.480Z,41.60
2023-01-13T17:52:17.636Z,52.67
2023-01-13T17:54:50.968Z,60.28
2023-01-13T17:57:29.881Z,55.17
2023-01-13T18:00:14.715Z,34.15
2023-01-13T18:02:43.791Z,50.10
2023-01-13T18:05:10.720Z,61.00
2023-01-13T18:07:43.691Z,54.42
2023-01-13T18:10:14.475Z,60.45
2023-01-13T18:12:54.918Z,57.47
2023-01-13T18:15:26.588Z,51.83
2023-01-13T18:17:55.644Z,50.90
2023-01-13T18:20:42.564Z,56.83
2023-01-13T18:23:39.363Z,50.47
2023-01-13T18:26:54.392Z,50.28
2023-01-13T18:29:39.420Z,51.65
2023-01-13T18:32:09.710Z,56.65
2023-01-13T18:34:58.695Z,52.22
2023-01-13T18:40:33.658Z,48.10
2023-01-13T18:43:06.377Z,56.88
2023-01-13T18:45:51.795Z,47.30
2023-01-13T18:48:27.783Z,52.75
2023-01-13T18:51:02.776Z,48.05
2023-01-13T18:53:36.335Z,41.92
2023-01-13T18:56:24.723Z,49.70
2023-01-13T18:59:07.817Z,50.80
2023-01-13T19:01:49.812Z,49.20
2023-01-13T19:04:32.565Z,51.08
2023-01-13T19:07:15.379Z,56.80
2023-01-13T19:10:00.114Z,53.67
2023-01-13T19:12:46.430Z,49.95
2023-01-13T19:15:26.050Z,52.67
2023-01-13T19:18:01.566Z,46.90
2023-01-13T19:20:39.213Z,51.55
2023-01-13T19:23:18.802Z,39.60
2023-01-13T19:25:47.786Z,52.92
2023-01-13T19:28:29.119Z,51.83
2023-01-13T19:31:14.734Z,53.53
2023-01-13T19:33:51.613Z,50.40
2023-01-13T19:36:36.660Z,50.38
2023-01-13T19:39:15.092Z,54.88
2023-01-13T19:42:09.331Z,48.50
2023-01-13T19:45:00.216Z,51.55
2023-01-13T19:47:45.906Z,49.63
2023-01-13T19:50:15.932Z,52.42
2023-01-13T19:52:51.259Z,51.05
2023-01-13T19:55:22.508Z,47.63
2023-01-13T19:58:02.951Z,55.25
2023-01-13T20:00:42.107Z,53.33
2023-01-13T20:03:22.501Z,43.17
2023-01-13T20:06:03.331Z,55.35
2023-01-13T20:08:36.839Z,51.40
2023-01-13T20:11:22.992Z,53.75
2023-01-13T20:13:52.214Z,57.30
2023-01-13T20:16:19.285Z,50.80
2023-01-13T20:19:01.567Z,51.17
2023-01-13T20:21:37.887Z,46.17
2023-01-13T20:24:13.104Z,51.33
2023-01-13T20:26:52.623Z,52.53
2023-01-13T20:29:31.632Z,44.92
2023-01-13T20:32:10.473Z,51.95
2023-01-13T20:34:40.581Z,47.20
2023-01-13T20:37:14.594Z,49.05
2023-01-13T20:39:51.203Z,47.75
2023-01-13T20:42:30.918Z,49.55
2023-01-13T20:45:10.286Z,46.78
2023-01-13T20:47:42.418Z,48.25
2023-01-13T20:50:11.932Z,49.40
2023-01-13T20:52:50.093Z,54.78
2023-01-13T20:55:26.899Z,47.25
2023-01-13T20:58:09.234Z,49.58
2023-01-13T21:00:45.111Z,48.65
2023-01-13T21:03:25.436Z,47.55
2023-01-13T21:05:57.110Z,35.03
2023-01-13T21:08:24.704Z,36.13
2023-01-13T21:11:14.068Z,48.67
2023-01-13T21:14:08.014Z,48.03
2023-01-13T21:16:44.795Z,38.38
2023-01-13T21:19:24.118Z,51.35
2023-01-13T21:22:04.745Z,49.17
2023-01-13T21:24:45.115Z,45.60
2023-01-13T21:27:25.042Z,49.00
2023-01-13T21:29:53.169Z,39.75
2023-01-13T21:32:36.467Z,46.75
2023-01-13T21:35:07.297Z,45.15
2023-01-13T21:37:43.355Z,46.47
2023-01-13T21:40:17.860Z,45.80
2023-01-13T21:43:08.336Z,41.45
2023-01-13T21:46:04.734Z,41.47
2023-01-13T21:48:43.163Z,43.55
2023-01-13T21:51:20.915Z,52.28
2023-01-13T21:53:54.771Z,47.72
2023-01-13T21:56:33.492Z,48.25
2023-01-13T21:59:08.034Z,50.53
2023-01-13T22:02:23.022Z,43.35
2023-01-13T22:04:46.249Z,53.65
2023-01-13T22:07:27.260Z,54.40
2023-01-13T22:10:01.162Z,48.03
2023-01-13T22:12:29.724Z,47.70
2023-01-13T22:15:04.376Z,51.22
2023-01-13T22:17:37.539Z,48.92
2023-01-13T22:20:22.629Z,48.67
2023-01-13T22:22:52.366Z,50.45
2023-01-13T22:25:29.837Z,38.72
2023-01-13T22:28:10.641Z,40.92
2023-01-13T22:30:39.844Z,48.83
2023-01-13T22:33:06.940Z,40.25
2023-01-13T22:35:34.708Z,41.03
2023-01-13T22:38:04.465Z,45.58
2023-01-13T22:40:31.661Z,45.85
2023-01-13T22:43:01.707Z,46.90
2023-01-13T22:45:28.626Z,49.45
2023-01-13T22:48:03.353Z,43.47
2023-01-13T22:50:39.838Z,43.55
2023-01-13T22:53:11.872Z,48.03
2023-01-13T22:55:38.855Z,43.40
2023-01-13T22:58:21.135Z,44.13
2023-01-13T23:00:50.285Z,35.90
2023-01-13T23:03:23.934Z,45.42
2023-01-13T23:06:05.548Z,50.60
2023-01-13T23:08:43.233Z,42.58
2023-01-13T23:11:12.779Z,46.22
2023-01-13T23:13:42.959Z,33.75
2023-01-13T23:16:20.395Z,45.95
2023-01-13T23:18:49.226Z,45.35
2023-01-13T23:21:40.223Z,47.08
2023-01-13T23:24:22.252Z,44.10
2023-01-13T23:26:56.010Z,48.25
2023-01-13T23:29:39.444Z,51.60
2023-01-13T23:32:23.162Z,43.17
2023-01-13T23:41:14.084Z,52.15
2023-01-13T23:44:07.034Z,43.88
2023-01-13T23:46:53.495Z,45.97
2023-01-13T23:49:31.518Z,46.00
2023-01-13T23:52:11.876Z,53.15
2023-01-13T23:54:43.353Z,50.08
2023-01-13T23:57:15.166Z,51.33
2023-01-13T23:59:48.192Z,53.95
